Airfield :
LOGIN :

Register | Disclaimer

   EN    FR    IT 

 










Legend :    VFR   Marginal VFR   IFR   Intensive IFR   Very Intensive IFR
Visi :
Ceiling :
>= 8 km
>= 3000ft
5 to 8 km
1000 to 3000 ft
1500m to 5 km
500 to 1000 ft
800 to 1500m
200 to 500 ft
< 800m
< 200 ft
Symbols :   Thunderstorms  Fog  Heavy snow  Heavy precipitations  Wind > 20 kt
SIGMETs :     Misc.  Thunderstorms  Icing  Turbulence  Mountain Waves  Volcanic Ashes






- Airport Elevation : 2265 ft
- IATA code : CZL


DABC - Mohamed Boudiaf Int. Constantine

CURRENT METAR :
  • 181030Z 16003KT 9999 FEW026 23/13 Q1021

EXPIRED METARs :
  • 181000Z 24004KT 9999 FEW026 23/14 Q1021
  • 180930Z VRB02KT CAVOK 22/14 Q1021
  • 180900Z 13002KT CAVOK 20/14 Q1021
  • 180830Z 06002KT CAVOK 18/13 Q1021
  • 180800Z 07002KT CAVOK 17/13 Q1021

TAF TAF DABC
Valid from the 18 at 06:00 until the 19 at 06:00 UTC


180500Z 1806/1906 27008KT 9999 FFW030
BECMG 1810/1812 04012KT
TEMPO 1811/1820 FEW030TCU
PROB40
TEMPO 1812/1818 5000 -TSRA FEW026CB
BECMG 1820/1822 33008KT



MET'MAP, your aeronautical weather chart ! - Copyright ORBIFLY December 2007 - Disclaimer

ORBIFLY MET'MAP TEAM :

Programming & Development : Alexandra Zaïnal
Concept & Development : Baudouin d'Aumeries
Co-Development & Prog : Marc-Olivier Méhu
Technical & hardware support : Manuel Goepfert

Contact : metmap@orbifly.com




SOURCES & CREDITS :

   NOAA